createdAt,value
2018-12-12T00:10:07.444Z,4.35
2018-12-12T00:14:52.711Z,4.32
2018-12-12T00:19:38.762Z,3.90
2018-12-12T00:24:24.148Z,3.96
2018-12-12T00:29:09.344Z,4.11
2018-12-12T00:33:53.810Z,3.96
2018-12-12T00:38:39.723Z,3.89
2018-12-12T00:43:26.124Z,3.68
2018-12-12T00:48:11.424Z,3.85
2018-12-12T00:52:59.708Z,4.38
2018-12-12T00:57:45.328Z,4.07
2018-12-12T01:02:33.614Z,4.03
2018-12-12T01:07:18.741Z,3.88
2018-12-12T01:12:08.998Z,3.70
2018-12-12T01:16:54.551Z,3.41
2018-12-12T01:21:38.905Z,3.66
2018-12-12T01:26:24.108Z,3.67
2018-12-12T01:31:09.281Z,3.39
2018-12-12T01:35:53.599Z,3.66
2018-12-12T01:40:38.925Z,3.59
2018-12-12T01:45:24.147Z,3.58
2018-12-12T01:50:08.356Z,3.60
2018-12-12T01:54:53.437Z,3.88
2018-12-12T01:59:38.893Z,3.59
2018-12-12T02:04:24.172Z,3.89
2018-12-12T02:09:09.381Z,4.00
2018-12-12T02:13:56.184Z,3.76
2018-12-12T02:18:44.879Z,3.56
2018-12-12T02:23:30.722Z,3.50
2018-12-12T02:28:16.241Z,3.96
2018-12-12T02:33:00.728Z,3.60
2018-12-12T02:37:46.288Z,3.59
2018-12-12T02:42:32.006Z,3.50
2018-12-12T02:47:16.061Z,3.52
2018-12-12T02:52:01.288Z,3.95
2018-12-12T02:56:46.500Z,4.02
2018-12-12T03:01:31.826Z,3.81
2018-12-12T03:06:17.046Z,4.22
2018-12-12T03:11:02.765Z,3.84
2018-12-12T03:15:47.860Z,3.97
2018-12-12T03:20:33.073Z,3.91
2018-12-12T03:25:18.831Z,3.49
2018-12-12T03:30:05.170Z,3.76
2018-12-12T03:34:49.445Z,3.47
2018-12-12T03:39:36.158Z,3.65
2018-12-12T03:44:20.308Z,3.67
2018-12-12T03:49:05.584Z,4.02
2018-12-12T03:53:50.881Z,4.02
2018-12-12T03:58:35.169Z,3.89
2018-12-12T04:03:21.716Z,3.54
2018-12-12T04:08:06.657Z,3.55
2018-12-12T04:12:50.801Z,3.54
2018-12-12T04:17:35.490Z,3.67
2018-12-12T04:22:21.852Z,3.51
2018-12-12T04:27:06.083Z,3.36
2018-12-12T04:31:51.291Z,3.35
2018-12-12T04:36:36.761Z,3.40
2018-12-12T04:41:21.648Z,3.67
2018-12-12T04:46:06.857Z,3.68
2018-12-12T04:50:51.168Z,3.72
2018-12-12T04:55:36.385Z,3.75
2018-12-12T05:00:21.888Z,3.85
2018-12-12T05:05:06.156Z,4.07
2018-12-12T05:09:51.545Z,3.70
2018-12-12T05:14:37.178Z,3.86
2018-12-12T05:19:22.680Z,3.35
2018-12-12T05:24:06.949Z,3.54
2018-12-12T05:28:52.831Z,3.66
2018-12-12T05:33:38.598Z,4.46
2018-12-12T05:38:22.807Z,4.77
2018-12-12T05:43:09.049Z,5.05
2018-12-12T05:47:54.165Z,5.00
2018-12-12T05:52:40.416Z,4.05
2018-12-12T05:57:24.917Z,4.04
2018-12-12T06:02:10.881Z,3.49
2018-12-12T06:06:55.484Z,3.62
2018-12-12T06:11:42.407Z,3.80
2018-12-12T06:16:26.484Z,4.24
2018-12-12T06:21:12.849Z,3.69
2018-12-12T06:25:58.590Z,3.93
2018-12-12T06:30:47.367Z,4.40
2018-12-12T06:35:31.550Z,3.59
2018-12-12T06:40:21.148Z,3.75
2018-12-12T06:45:06.757Z,4.44
2018-12-12T06:49:52.166Z,4.59
2018-12-12T06:54:37.299Z,5.20
2018-12-12T06:59:22.500Z,5.95
2018-12-12T07:04:07.784Z,6.24
2018-12-12T07:08:53.947Z,4.07
2018-12-12T07:13:39.136Z,3.68
2018-12-12T07:18:24.346Z,3.63
2018-12-12T07:23:09.645Z,3.73
2018-12-12T07:27:55.516Z,3.99
2018-12-12T07:32:41.891Z,4.34
2018-12-12T07:37:26.431Z,3.97
2018-12-12T07:42:13.099Z,4.29
2018-12-12T07:46:57.744Z,4.69
2018-12-12T07:51:43.059Z,5.42
2018-12-12T07:56:28.358Z,6.40
2018-12-12T08:01:13.436Z,6.83
2018-12-12T08:05:58.350Z,5.53
2018-12-12T08:10:44.248Z,6.68
2018-12-12T08:15:29.365Z,4.78
2018-12-12T08:20:13.404Z,6.91
2018-12-12T08:24:58.842Z,5.22
2018-12-12T08:29:44.361Z,4.51
2018-12-12T08:34:29.611Z,4.30
2018-12-12T08:39:14.017Z,3.99
2018-12-12T08:43:59.326Z,4.21
2018-12-12T08:48:45.668Z,4.70
2018-12-12T08:53:30.922Z,4.77
2018-12-12T08:58:16.480Z,4.37
2018-12-12T09:03:02.820Z,4.53
2018-12-12T09:07:46.966Z,5.93
2018-12-12T09:12:32.306Z,4.64
2018-12-12T09:17:17.595Z,5.42
2018-12-12T09:22:03.106Z,4.58
2018-12-12T09:26:48.318Z,4.62
2018-12-12T09:31:36.960Z,4.43
2018-12-12T09:36:22.136Z,4.77
2018-12-12T09:41:08.639Z,4.27
2018-12-12T09:45:53.962Z,4.28
2018-12-12T09:50:39.342Z,4.61
2018-12-12T09:55:24.602Z,4.65
2018-12-12T10:00:11.452Z,4.66
2018-12-12T10:04:56.691Z,4.86
2018-12-12T10:09:40.939Z,5.81
2018-12-12T10:14:25.082Z,5.63
2018-12-12T10:19:10.396Z,5.25
2018-12-12T10:23:55.669Z,5.28
2018-12-12T10:28:41.485Z,5.62
2018-12-12T10:33:26.601Z,5.49
2018-12-12T10:38:11.807Z,5.50
2018-12-12T10:42:57.628Z,5.27
2018-12-12T10:47:43.035Z,5.31
2018-12-12T10:52:27.279Z,5.05
2018-12-12T10:57:11.549Z,5.03
2018-12-12T11:02:02.745Z,4.87
2018-12-12T11:06:47.102Z,4.82
2018-12-12T11:11:31.494Z,5.00
2018-12-12T11:16:17.115Z,5.00
2018-12-12T11:21:02.393Z,5.10
2018-12-12T11:25:47.662Z,5.30
2018-12-12T11:30:33.063Z,4.88
2018-12-12T11:35:18.248Z,5.03
2018-12-12T11:40:04.959Z,4.90
2018-12-12T11:44:49.591Z,4.98
2018-12-12T11:49:35.756Z,4.97
2018-12-12T11:54:20.001Z,5.07
2018-12-12T11:59:06.413Z,4.91
2018-12-12T12:03:56.773Z,4.97
2018-12-12T12:08:38.080Z,5.16
2018-12-12T12:13:22.837Z,5.35
2018-12-12T12:18:08.929Z,5.27
2018-12-12T12:22:53.473Z,5.62
2018-12-12T12:27:39.071Z,5.52
2018-12-12T12:32:23.949Z,5.49
2018-12-12T12:37:09.083Z,5.27
2018-12-12T12:41:54.301Z,6.05
2018-12-12T12:46:39.577Z,5.43
2018-12-12T12:51:24.693Z,4.80
2018-12-12T12:56:09.763Z,4.71
2018-12-12T13:00:55.906Z,5.06
2018-12-12T13:05:40.153Z,4.87
2018-12-12T13:10:25.472Z,5.12
2018-12-12T13:15:11.143Z,5.08
2018-12-12T13:19:57.243Z,5.09
2018-12-12T13:24:42.445Z,4.70
2018-12-12T13:29:26.701Z,4.77
2018-12-12T13:34:16.224Z,4.76
2018-12-12T13:39:02.174Z,4.83
2018-12-12T13:43:47.366Z,4.41
2018-12-12T13:48:32.689Z,4.67
2018-12-12T13:53:18.416Z,4.59
2018-12-12T13:58:04.789Z,5.16
2018-12-12T14:02:50.019Z,4.35
2018-12-12T14:07:35.189Z,4.19
2018-12-12T14:12:19.901Z,4.35
2018-12-12T14:17:05.628Z,4.20
2018-12-12T14:21:50.618Z,4.02
2018-12-12T14:26:35.883Z,4.18
2018-12-12T14:31:21.102Z,4.07
2018-12-12T14:36:06.184Z,3.81
2018-12-12T14:40:52.844Z,3.63
2018-12-12T14:45:38.081Z,3.67
2018-12-12T14:50:22.164Z,3.86
2018-12-12T14:55:07.438Z,3.66
2018-12-12T14:59:52.806Z,3.48
2018-12-12T15:04:38.090Z,4.01
2018-12-12T15:09:22.326Z,4.23
2018-12-12T15:14:06.573Z,4.17
2018-12-12T15:18:51.865Z,4.51
2018-12-12T15:23:37.020Z,4.53
2018-12-12T15:28:22.238Z,3.59
2018-12-12T15:33:06.389Z,4.44
2018-12-12T15:37:51.600Z,4.82
2018-12-12T15:42:36.764Z,5.05
2018-12-12T15:47:20.998Z,5.12
2018-12-12T15:52:06.311Z,4.65
2018-12-12T15:56:50.583Z,4.96
2018-12-12T16:01:34.904Z,4.05
2018-12-12T16:06:20.163Z,3.92
2018-12-12T16:11:08.334Z,3.64
2018-12-12T16:15:54.068Z,3.66
2018-12-12T16:20:39.937Z,3.81
2018-12-12T16:25:25.682Z,3.38
2018-12-12T16:30:11.589Z,2.10
2018-12-12T16:34:55.966Z,2.70
2018-12-12T16:39:42.023Z,3.28
2018-12-12T16:44:27.253Z,3.54
2018-12-12T16:49:13.673Z,3.48
2018-12-12T16:53:58.767Z,3.31
2018-12-12T16:58:45.329Z,2.39
2018-12-12T17:03:30.897Z,1.94
2018-12-12T17:08:15.147Z,2.89
2018-12-12T17:13:00.487Z,3.01
2018-12-12T17:17:49.651Z,3.09
2018-12-12T17:22:33.952Z,3.05
2018-12-12T17:27:19.211Z,3.01
2018-12-12T17:32:04.537Z,2.47
2018-12-12T17:36:49.066Z,2.78
2018-12-12T17:41:34.817Z,2.78
2018-12-12T17:46:19.247Z,2.48
2018-12-12T17:51:03.677Z,2.39
2018-12-12T17:55:49.636Z,2.74
2018-12-12T18:00:34.990Z,2.56
2018-12-12T18:05:19.289Z,2.07
2018-12-12T18:10:08.433Z,2.46
2018-12-12T18:14:53.735Z,2.63
2018-12-12T18:19:40.195Z,2.60
2018-12-12T18:24:27.817Z,2.54
2018-12-12T18:29:12.941Z,2.74
2018-12-12T18:33:57.357Z,2.81
2018-12-12T18:38:45.946Z,2.39
2018-12-12T18:43:30.279Z,2.69
2018-12-12T18:48:16.594Z,2.68
2018-12-12T18:53:03.248Z,2.74
2018-12-12T18:57:48.501Z,3.00
2018-12-12T19:02:33.754Z,3.19
2018-12-12T19:07:18.097Z,2.55
2018-12-12T19:12:04.146Z,2.12
2018-12-12T19:16:50.467Z,1.90
2018-12-12T19:21:36.386Z,2.48
2018-12-12T19:26:20.686Z,3.16
2018-12-12T19:31:06.898Z,2.98
2018-12-12T19:35:52.173Z,2.93
2018-12-12T19:40:36.459Z,2.73
2018-12-12T19:45:23.648Z,1.72
2018-12-12T19:50:10.507Z,1.90
2018-12-12T19:54:55.845Z,1.58
2018-12-12T19:59:42.347Z,2.02
2018-12-12T20:04:27.212Z,2.74
2018-12-12T20:09:13.018Z,2.94
2018-12-12T20:13:59.492Z,3.01
2018-12-12T20:18:44.892Z,3.11
2018-12-12T20:23:29.252Z,3.48
2018-12-12T20:28:17.755Z,3.34
2018-12-12T20:33:03.061Z,3.54
2018-12-12T20:37:48.473Z,2.97
2018-12-12T20:42:32.593Z,2.35
2018-12-12T20:47:17.883Z,1.96
2018-12-12T20:52:02.633Z,2.26
2018-12-12T20:56:53.554Z,2.78
2018-12-12T21:01:37.910Z,3.69
2018-12-12T21:06:23.139Z,4.08
2018-12-12T21:11:07.971Z,4.02
2018-12-12T21:15:53.518Z,3.12
2018-12-12T21:20:39.005Z,2.88
2018-12-12T21:25:36.685Z,3.38
2018-12-12T21:30:22.171Z,3.96
2018-12-12T21:35:07.589Z,3.98
2018-12-12T21:39:54.385Z,4.12
2018-12-12T21:44:38.648Z,4.36
2018-12-12T21:49:25.615Z,3.96
2018-12-12T21:54:09.834Z,4.32
2018-12-12T21:58:56.166Z,3.68
2018-12-12T22:03:41.349Z,3.77
2018-12-12T22:08:26.786Z,4.16
2018-12-12T22:13:11.886Z,3.59
2018-12-12T22:17:57.527Z,3.54
2018-12-12T22:22:44.469Z,3.91
2018-12-12T22:27:33.442Z,3.99
2018-12-12T22:32:18.517Z,3.61
2018-12-12T22:37:03.923Z,4.29
2018-12-12T22:41:49.071Z,3.94
2018-12-12T22:46:33.349Z,3.95
2018-12-12T22:51:18.574Z,4.13
2018-12-12T22:56:03.835Z,4.01
2018-12-12T23:00:54.469Z,4.26
2018-12-12T23:05:38.768Z,3.62
2018-12-12T23:10:24.142Z,3.60
2018-12-12T23:15:09.198Z,3.73
2018-12-12T23:19:54.421Z,3.58
2018-12-12T23:24:38.613Z,3.70
2018-12-12T23:29:27.139Z,3.65
2018-12-12T23:34:12.126Z,3.68
2018-12-12T23:38:57.219Z,3.61
2018-12-12T23:43:42.466Z,3.53
2018-12-12T23:48:27.631Z,3.53
2018-12-12T23:53:12.781Z,4.20
2018-12-12T23:57:57.008Z,4.81
